Time;durP1;ratioP1;P1;durP2;ratioP2;P2;SDS_P1;SDS_P2;PMS_P1;PMS_P2;Temp;Humidity;BMP_temperature;BMP_pressure;BME280_temperature;BME280_humidity;BME280_pressure;Samples;Min_cycle;Max_cycle;Signal;HPM_P1;HPM_P2
2023/05/08 00:01:08;;;;;;;14.13;12.63;;;13.10;99.90;;;;;;5039497;28;20785;-60
2023/05/08 00:03:34;;;;;;;13.68;12.13;;;13.10;99.90;;;;;;5049215;28;20044;-60
2023/05/08 00:06:03;;;;;;;13.60;12.27;;;13.10;99.90;;;;;;5050182;28;20037;-60
2023/05/08 00:08:29;;;;;;;14.30;12.80;;;13.10;99.90;;;;;;5046797;28;20063;-60
2023/05/08 00:10:55;;;;;;;14.43;12.98;;;13.00;99.90;;;;;;5048610;28;20041;-61
2023/05/08 00:13:20;;;;;;;14.90;12.23;;;13.00;99.90;;;;;;5048380;28;20043;-60
2023/05/08 00:15:46;;;;;;;14.60;13.10;;;13.00;99.90;;;;;;5038994;28;20046;-62
2023/05/08 00:18:11;;;;;;;14.57;13.07;;;13.00;99.90;;;;;;5043234;28;20443;-62
2023/05/08 00:20:37;;;;;;;13.70;12.40;;;13.00;99.90;;;;;;5043848;28;20041;-62
2023/05/08 00:23:03;;;;;;;14.35;12.85;;;13.00;99.90;;;;;;5042546;28;20048;-62
2023/05/08 00:25:30;;;;;;;13.88;12.48;;;13.00;99.90;;;;;;5036638;28;20098;-61
2023/05/08 00:27:56;;;;;;;14.77;13.25;;;12.90;99.90;;;;;;5039941;28;20426;-60
2023/05/08 00:30:22;;;;;;;14.27;12.82;;;12.90;99.90;;;;;;5039655;28;20029;-59
2023/05/08 00:32:48;;;;;;;15.20;12.77;;;12.90;99.90;;;;;;5047932;28;20120;-61
2023/05/08 00:35:13;;;;;;;15.20;13.68;;;12.90;99.90;;;;;;5041452;28;20443;-62
2023/05/08 00:37:40;;;;;;;17.17;14.40;;;12.80;99.90;;;;;;5040894;28;20407;-60
2023/05/08 00:40:07;;;;;;;15.23;13.63;;;12.80;99.90;;;;;;5041572;28;20064;-60
2023/05/08 00:42:33;;;;;;;15.70;13.82;;;12.80;99.90;;;;;;5039755;28;20045;-61
2023/05/08 00:44:59;;;;;;;14.98;13.55;;;12.70;99.90;;;;;;5046784;28;20035;-61
2023/05/08 00:47:25;;;;;;;15.30;13.70;;;12.70;99.90;;;;;;5042345;28;20045;-62
2023/05/08 00:49:51;;;;;;;14.30;12.90;;;12.70;99.90;;;;;;5038757;28;20055;-59
2023/05/08 00:52:18;;;;;;;15.85;14.07;;;12.70;99.90;;;;;;5054197;28;20144;-62
2023/05/08 00:54:44;;;;;;;15.43;13.82;;;12.60;99.90;;;;;;5045714;28;20120;-61
2023/05/08 00:57:10;;;;;;;15.35;13.63;;;12.60;99.90;;;;;;5049884;28;20048;-60
2023/05/08 00:59:40;;;;;;;16.45;14.75;;;12.60;99.90;;;;;;5052062;28;20045;-61
2023/05/08 01:02:07;;;;;;;15.50;14.00;;;12.50;99.90;;;;;;5048584;28;20063;-62
2023/05/08 01:04:34;;;;;;;15.60;13.90;;;12.50;99.90;;;;;;5051811;28;20116;-61
2023/05/08 01:07:01;;;;;;;15.68;13.57;;;12.50;99.90;;;;;;5050581;28;20403;-61
2023/05/08 01:09:27;;;;;;;16.25;14.52;;;12.40;99.90;;;;;;5048765;28;20381;-60
2023/05/08 01:12:25;;;;;;;15.68;13.77;;;12.40;99.90;;;;;;5052028;28;20045;-60
2023/05/08 01:15:04;;;;;;;15.65;14.07;;;12.40;99.90;;;;;;5027300;28;20080;-60
2023/05/08 01:18:02;;;;;;;16.10;14.15;;;12.30;99.90;;;;;;5027477;28;20124;-60
2023/05/08 01:20:52;;;;;;;17.20;15.40;;;12.30;99.90;;;;;;5029393;28;20044;-61
2023/05/08 01:23:43;;;;;;;18.70;15.10;;;12.30;99.90;;;;;;5029461;28;20131;-60
2023/05/08 01:26:41;;;;;;;17.30;15.50;;;12.20;99.90;;;;;;5010913;28;20053;-61
2023/05/08 01:29:21;;;;;;;18.23;15.15;;;12.20;99.90;;;;;;5029136;28;20053;-61
2023/05/08 01:32:11;;;;;;;16.25;14.65;;;12.20;99.90;;;;;;5028813;28;20542;-60
2023/05/08 01:34:50;;;;;;;15.88;14.18;;;12.10;99.90;;;;;;5013276;28;20116;-62
2023/05/08 01:37:22;;;;;;;17.75;15.95;;;12.10;99.90;;;;;;5027644;28;20042;-59
2023/05/08 01:39:55;;;;;;;16.60;14.38;;;12.10;99.90;;;;;;5028795;28;20038;-61
2023/05/08 01:42:27;;;;;;;16.45;14.75;;;12.00;99.90;;;;;;5027535;28;20033;-62
2023/05/08 01:44:58;;;;;;;17.40;15.27;;;12.00;99.90;;;;;;5028606;28;20060;-60
2023/05/08 01:47:28;;;;;;;16.50;14.57;;;12.00;99.90;;;;;;5027770;28;20041;-62
2023/05/08 01:50:06;;;;;;;17.38;15.63;;;11.90;99.90;;;;;;5003426;28;20054;-61
2023/05/08 01:52:50;;;;;;;18.98;15.20;;;11.90;99.90;;;;;;5050139;28;20124;-60
2023/05/08 01:55:23;;;;;;;16.38;14.77;;;11.90;99.90;;;;;;5050401;28;20037;-61
2023/05/08 01:57:53;;;;;;;16.30;14.60;;;11.90;99.90;;;;;;5050121;28;20044;-61
2023/05/08 02:00:21;;;;;;;16.80;15.00;;;11.90;99.90;;;;;;5051428;28;20043;-61
2023/05/08 02:02:49;;;;;;;16.85;15.15;;;11.80;99.90;;;;;;5044786;28;20063;-60
2023/05/08 02:05:16;;;;;;;16.38;14.50;;;11.80;99.90;;;;;;5051320;28;20210;-62
2023/05/08 02:07:44;;;;;;;17.38;15.60;;;11.80;99.90;;;;;;5049373;28;20044;-60
2023/05/08 02:10:12;;;;;;;16.70;15.00;;;11.80;99.90;;;;;;5051028;28;20063;-60
2023/05/08 02:12:40;;;;;;;16.27;14.57;;;11.70;99.90;;;;;;5048139;28;20040;-62
2023/05/08 02:15:08;;;;;;;16.63;14.88;;;11.70;99.90;;;;;;5049197;28;20033;-60
2023/05/08 02:17:38;;;;;;;16.20;14.60;;;11.70;99.90;;;;;;5050263;28;20984;-59
2023/05/08 02:20:06;;;;;;;16.60;14.85;;;11.70;99.90;;;;;;5049756;28;20040;-61
2023/05/08 02:22:32;;;;;;;15.35;13.85;;;11.70;99.90;;;;;;5051008;28;20040;-61
2023/05/08 02:24:58;;;;;;;17.17;15.38;;;11.70;99.90;;;;;;5049724;28;20033;-61
2023/05/08 02:27:26;;;;;;;15.65;14.05;;;11.70;99.90;;;;;;5050827;28;20092;-61
2023/05/08 02:29:53;;;;;;;16.27;14.55;;;11.60;99.90;;;;;;5053375;28;20141;-60
2023/05/08 02:32:20;;;;;;;18.70;15.25;;;11.60;99.90;;;;;;5034217;28;20487;-61
2023/05/08 02:34:48;;;;;;;16.48;14.88;;;11.60;99.90;;;;;;5030341;28;20072;-61
2023/05/08 02:37:19;;;;;;;15.60;14.00;;;11.60;99.90;;;;;;5045889;28;20037;-61
2023/05/08 02:39:46;;;;;;;15.75;14.05;;;11.60;99.90;;;;;;5046253;28;20029;-62
2023/05/08 02:42:12;;;;;;;16.60;14.88;;;11.60;99.90;;;;;;5035897;28;20045;-61
2023/05/08 02:44:38;;;;;;;16.05;14.23;;;11.60;99.90;;;;;;5045114;28;20036;-61
2023/05/08 02:47:20;;;;;;;16.00;14.35;;;11.60;99.90;;;;;;5039394;28;20068;-60
2023/05/08 02:50:08;;;;;;;15.68;14.10;;;11.70;99.90;;;;;;5039312;28;20040;-61
2023/05/08 02:52:46;;;;;;;16.25;14.63;;;11.70;99.90;;;;;;5046990;28;20483;-61
2023/05/08 02:55:21;;;;;;;16.48;14.77;;;11.70;99.90;;;;;;5036551;28;20115;-60
2023/05/08 02:58:02;;;;;;;15.98;14.48;;;11.60;99.90;;;;;;5035883;28;20090;-61
2023/05/08 03:00:33;;;;;;;15.82;14.23;;;11.60;99.90;;;;;;5038968;28;20119;-62
2023/05/08 03:03:22;;;;;;;16.00;14.38;;;11.60;99.90;;;;;;5035059;28;20699;-60
2023/05/08 03:05:52;;;;;;;16.88;13.75;;;11.60;99.90;;;;;;5035561;28;20049;-61
2023/05/08 03:08:28;;;;;;;15.70;14.10;;;11.60;99.90;;;;;;5045481;28;20040;-60
2023/05/08 03:10:58;;;;;;;15.52;13.90;;;11.60;99.90;;;;;;5037205;28;20211;-60
2023/05/08 03:13:27;;;;;;;16.10;14.45;;;11.60;99.90;;;;;;5042693;28;20072;-60
2023/05/08 03:15:59;;;;;;;16.85;15.25;;;11.60;99.90;;;;;;5040861;28;20044;-61
2023/05/08 03:18:34;;;;;;;16.95;14.38;;;11.60;99.90;;;;;;5036328;28;20083;-59
2023/05/08 03:21:01;;;;;;;14.93;13.48;;;11.50;99.90;;;;;;5037788;28;20456;-61
2023/05/08 03:23:29;;;;;;;15.68;14.18;;;11.50;99.90;;;;;;5040817;28;20745;-60
2023/05/08 03:25:57;;;;;;;16.02;14.43;;;11.50;99.90;;;;;;5037519;28;20110;-61
2023/05/08 03:28:23;;;;;;;15.90;14.27;;;11.40;99.90;;;;;;5036674;28;20044;-61
2023/05/08 03:30:50;;;;;;;16.58;14.88;;;11.40;99.90;;;;;;5048296;28;20037;-60
2023/05/08 03:33:16;;;;;;;16.00;14.40;;;11.30;99.90;;;;;;5041325;28;20041;-61
2023/05/08 03:35:44;;;;;;;15.63;14.07;;;11.30;99.90;;;;;;5039937;28;20395;-60
2023/05/08 03:38:10;;;;;;;16.52;14.82;;;11.20;99.90;;;;;;5039291;28;20052;-61
2023/05/08 03:40:37;;;;;;;16.30;14.70;;;11.20;99.90;;;;;;5041366;28;20183;-60
2023/05/08 03:43:06;;;;;;;16.88;14.32;;;11.20;99.90;;;;;;5043581;28;20071;-61
2023/05/08 03:45:35;;;;;;;15.73;14.13;;;11.10;99.90;;;;;;5035626;28;20041;-59
2023/05/08 03:48:03;;;;;;;15.65;13.88;;;11.10;99.90;;;;;;5048328;28;20565;-60
2023/05/08 03:50:30;;;;;;;16.25;14.48;;;11.10;99.90;;;;;;5037145;28;20499;-60
2023/05/08 03:52:57;;;;;;;16.40;13.73;;;11.10;99.90;;;;;;5040646;28;20405;-60
2023/05/08 03:55:23;;;;;;;15.15;13.55;;;11.10;99.90;;;;;;5049288;28;20117;-61
2023/05/08 03:58:09;;;;;;;14.68;13.18;;;11.00;99.90;;;;;;5047645;28;20146;-62
2023/05/08 04:00:53;;;;;;;15.25;13.57;;;11.00;99.90;;;;;;5045433;28;20160;-60
2023/05/08 04:03:29;;;;;;;14.60;13.10;;;11.00;99.90;;;;;;5038073;28;20060;-62
2023/05/08 04:06:16;;;;;;;15.32;13.82;;;11.00;99.90;;;;;;5046005;28;20504;-62
2023/05/08 04:08:51;;;;;;;14.43;13.00;;;11.00;99.90;;;;;;5040829;28;20043;-62
2023/05/08 04:11:30;;;;;;;14.38;12.88;;;10.90;99.90;;;;;;5038403;28;20415;-61
2023/05/08 04:14:06;;;;;;;14.95;13.38;;;10.90;99.90;;;;;;5038108;28;20618;-61
2023/05/08 04:16:41;;;;;;;14.73;13.23;;;10.90;99.90;;;;;;5042245;28;20376;-61
2023/05/08 04:19:10;;;;;;;14.55;13.05;;;10.80;99.90;;;;;;5047562;28;20051;-60
2023/05/08 04:21:39;;;;;;;17.30;14.23;;;10.90;99.90;;;;;;5046596;28;20037;-62
2023/05/08 04:24:09;;;;;;;14.02;12.00;;;10.80;99.90;;;;;;5044578;28;20631;-60
2023/05/08 04:26:36;;;;;;;13.98;12.40;;;10.80;99.90;;;;;;5040990;28;20049;-62
2023/05/08 04:29:03;;;;;;;14.75;13.25;;;10.80;99.90;;;;;;5035801;28;20162;-60
2023/05/08 04:31:29;;;;;;;13.63;12.30;;;10.90;99.90;;;;;;5037097;28;20045;-61
2023/05/08 04:33:55;;;;;;;14.55;13.00;;;10.80;99.90;;;;;;5035747;28;20045;-60
2023/05/08 04:36:22;;;;;;;13.48;12.15;;;10.90;99.90;;;;;;5037026;28;20094;-60
2023/05/08 04:38:48;;;;;;;13.27;11.95;;;10.90;99.90;;;;;;5036911;28;20057;-61
2023/05/08 04:41:14;;;;;;;14.20;12.70;;;10.90;99.90;;;;;;5037408;28;20949;-60
2023/05/08 04:43:41;;;;;;;14.02;12.60;;;10.90;99.90;;;;;;5047255;28;20381;-60
2023/05/08 04:46:07;;;;;;;14.10;12.63;;;10.90;99.90;;;;;;5052302;28;20032;-61
2023/05/08 04:48:33;;;;;;;13.77;12.48;;;10.90;99.90;;;;;;5050572;28;20040;-61
2023/05/08 04:50:59;;;;;;;14.60;13.10;;;11.00;99.90;;;;;;5047325;28;20036;-59
2023/05/08 04:53:25;;;;;;;13.52;12.15;;;11.00;99.90;;;;;;5036821;28;20056;-61
2023/05/08 04:55:51;;;;;;;13.90;12.50;;;11.00;99.90;;;;;;5039157;28;20036;-62
2023/05/08 04:58:17;;;;;;;13.77;12.38;;;11.00;99.90;;;;;;5038042;28;20116;-60
2023/05/08 05:00:43;;;;;;;14.10;12.68;;;11.10;99.90;;;;;;5038551;28;20167;-59
2023/05/08 05:03:08;;;;;;;14.85;13.27;;;11.10;99.90;;;;;;5048847;28;20106;-61
2023/05/08 05:05:35;;;;;;;13.90;12.50;;;11.20;99.90;;;;;;5052290;28;20090;-62
2023/05/08 05:08:00;;;;;;;13.10;11.77;;;11.20;99.90;;;;;;5050296;28;20033;-60
2023/05/08 05:10:26;;;;;;;14.68;12.25;;;11.20;99.90;;;;;;5051133;28;20438;-60
2023/05/08 05:12:52;;;;;;;13.32;11.93;;;11.30;99.90;;;;;;5066631;28;20036;-61
2023/05/08 05:15:17;;;;;;;14.23;12.73;;;11.30;99.90;;;;;;5049980;28;20036;-60
2023/05/08 05:17:44;;;;;;;13.75;12.35;;;11.40;99.90;;;;;;5049178;28;20040;-60
2023/05/08 05:20:10;;;;;;;14.15;11.80;;;11.50;99.90;;;;;;5048370;28;20375;-58
2023/05/08 05:22:35;;;;;;;14.00;12.60;;;11.50;99.90;;;;;;5049524;28;20029;-60
2023/05/08 05:25:01;;;;;;;15.00;12.88;;;11.60;99.90;;;;;;5031811;28;20111;-60
2023/05/08 05:27:27;;;;;;;13.63;12.32;;;11.70;99.90;;;;;;5048844;28;20049;-60
2023/05/08 05:29:52;;;;;;;13.57;12.18;;;11.70;99.90;;;;;;5048981;28;20045;-60
2023/05/08 05:32:19;;;;;;;14.13;12.73;;;11.80;99.90;;;;;;5049944;28;20036;-61
2023/05/08 05:34:45;;;;;;;13.65;11.73;;;11.80;99.90;;;;;;5050791;28;20052;-57
2023/05/08 05:37:10;;;;;;;13.10;11.80;;;11.90;99.90;;;;;;5050703;28;20037;-58
2023/05/08 05:39:36;;;;;;;13.65;12.07;;;12.00;99.90;;;;;;5048600;28;20041;-58
2023/05/08 05:42:02;;;;;;;14.02;12.20;;;12.10;99.90;;;;;;5050944;28;20032;-58
2023/05/08 05:44:28;;;;;;;12.60;11.40;;;12.20;99.90;;;;;;5047721;28;20037;-58
2023/05/08 05:46:53;;;;;;;14.02;12.23;;;12.30;99.90;;;;;;5050225;28;20566;-60
2023/05/08 05:49:19;;;;;;;13.50;12.10;;;12.30;99.90;;;;;;5044602;28;20037;-58
2023/05/08 05:51:45;;;;;;;12.82;11.55;;;12.40;99.90;;;;;;5040173;28;20091;-58
2023/05/08 05:54:10;;;;;;;12.10;10.90;;;12.50;99.90;;;;;;5047151;28;20025;-60
2023/05/08 05:56:36;;;;;;;12.68;11.10;;;12.70;99.90;;;;;;5047160;28;20044;-58
2023/05/08 05:59:02;;;;;;;12.38;11.07;;;12.80;99.90;;;;;;5050273;28;20037;-57
2023/05/08 06:01:27;;;;;;;12.18;10.77;;;12.90;99.90;;;;;;5047084;28;20103;-58
2023/05/08 06:03:53;;;;;;;13.63;11.93;;;12.90;99.90;;;;;;5062895;28;20140;-59
2023/05/08 06:06:19;;;;;;;12.85;11.55;;;13.00;99.90;;;;;;5047657;28;20102;-59
2023/05/08 06:08:45;;;;;;;12.98;11.68;;;13.00;99.90;;;;;;5049662;28;20048;-60
2023/05/08 06:11:11;;;;;;;12.45;11.25;;;13.10;99.90;;;;;;5049563;28;20036;-60
2023/05/08 06:13:39;;;;;;;12.55;11.25;;;13.20;99.90;;;;;;5047761;28;20407;-60
2023/05/08 06:16:06;;;;;;;12.30;11.18;;;13.40;99.90;;;;;;5042126;28;20037;-59
2023/05/08 06:18:32;;;;;;;12.13;10.93;;;13.50;99.90;;;;;;5050981;28;20119;-61
2023/05/08 06:20:58;;;;;;;12.40;11.20;;;13.70;99.90;;;;;;5048337;28;20136;-60
2023/05/08 06:23:24;;;;;;;11.65;10.55;;;13.90;99.90;;;;;;5049649;28;20045;-60
2023/05/08 06:25:50;;;;;;;11.05;9.95;;;14.00;99.90;;;;;;5064610;28;20045;-60
2023/05/08 06:28:16;;;;;;;11.75;10.65;;;14.10;99.90;;;;;;5047838;28;20041;-60
2023/05/08 06:30:42;;;;;;;12.32;11.05;;;14.10;99.90;;;;;;5049173;28;20124;-61
2023/05/08 06:33:08;;;;;;;12.07;10.98;;;14.10;99.90;;;;;;5048885;28;20036;-60
2023/05/08 06:35:34;;;;;;;12.10;10.88;;;14.00;99.90;;;;;;5048230;28;20069;-60
2023/05/08 06:38:00;;;;;;;11.88;10.77;;;13.90;99.90;;;;;;5048277;28;20440;-61
2023/05/08 06:40:25;;;;;;;12.00;10.80;;;13.90;99.90;;;;;;5050360;28;20040;-59
2023/05/08 06:42:51;;;;;;;12.23;10.90;;;13.90;99.90;;;;;;5048737;28;20178;-60
2023/05/08 06:45:17;;;;;;;11.82;10.65;;;13.90;99.90;;;;;;5039388;28;20049;-60
2023/05/08 06:47:43;;;;;;;11.80;10.68;;;13.90;99.90;;;;;;5044450;28;20055;-59
2023/05/08 06:50:09;;;;;;;11.38;10.27;;;13.90;99.90;;;;;;5047846;28;20025;-60
2023/05/08 06:52:34;;;;;;;11.75;10.55;;;13.90;99.90;;;;;;5044773;28;20198;-59
2023/05/08 06:55:00;;;;;;;12.10;10.75;;;13.90;99.90;;;;;;5047692;28;20119;-61
2023/05/08 06:57:28;;;;;;;11.48;10.15;;;13.90;99.90;;;;;;5045266;28;20045;-60
2023/05/08 06:59:53;;;;;;;12.10;10.70;;;14.00;99.90;;;;;;5046514;28;20116;-60
2023/05/08 07:02:19;;;;;;;12.43;11.23;;;14.10;99.90;;;;;;5049096;28;20135;-60
2023/05/08 07:04:45;;;;;;;11.50;10.40;;;14.20;99.90;;;;;;5049997;28;20044;-61
2023/05/08 07:07:11;;;;;;;13.65;10.75;;;14.30;99.90;;;;;;5047683;28;20073;-60
2023/05/08 07:09:37;;;;;;;11.75;10.55;;;14.40;99.90;;;;;;5046954;28;20120;-60
2023/05/08 07:12:03;;;;;;;11.57;10.40;;;14.50;99.90;;;;;;5049214;28;20455;-59
2023/05/08 07:14:28;;;;;;;12.50;11.30;;;14.60;99.90;;;;;;5049049;28;20120;-60
2023/05/08 07:16:54;;;;;;;12.00;10.80;;;14.70;99.90;;;;;;5049251;28;20087;-60
2023/05/08 07:19:20;;;;;;;12.10;10.90;;;14.70;99.90;;;;;;5048848;28;20119;-59
2023/05/08 07:21:46;;;;;;;12.75;11.55;;;14.80;99.90;;;;;;5047717;28;20537;-60
2023/05/08 07:24:11;;;;;;;13.35;11.95;;;14.80;99.90;;;;;;5047618;28;20044;-61
2023/05/08 07:26:37;;;;;;;12.63;10.40;;;14.70;99.90;;;;;;5047363;28;20515;-58
2023/05/08 07:29:03;;;;;;;11.65;10.57;;;14.60;99.90;;;;;;5048190;28;20037;-59
2023/05/08 07:31:28;;;;;;;12.27;11.05;;;14.70;99.90;;;;;;5041345;28;20036;-58
2023/05/08 07:33:54;;;;;;;12.60;11.32;;;14.60;99.90;;;;;;5045360;28;20040;-58
2023/05/08 07:36:19;;;;;;;13.55;11.43;;;14.70;99.90;;;;;;5063911;28;20037;-59
2023/05/08 07:38:45;;;;;;;12.98;11.45;;;14.70;99.90;;;;;;5045976;28;20033;-59
2023/05/08 07:41:11;;;;;;;11.40;10.35;;;14.70;99.90;;;;;;5058966;28;20029;-59
2023/05/08 07:43:36;;;;;;;12.93;11.60;;;14.80;99.90;;;;;;5047279;28;20503;-58
2023/05/08 07:46:02;;;;;;;12.38;11.18;;;15.00;99.90;;;;;;5047921;28;20041;-59
2023/05/08 07:48:28;;;;;;;12.77;11.48;;;15.10;99.90;;;;;;5043861;28;20515;-58
2023/05/08 07:50:53;;;;;;;12.32;11.13;;;15.20;99.90;;;;;;5049177;28;20109;-58
2023/05/08 07:53:19;;;;;;;13.02;11.73;;;15.30;99.90;;;;;;5046017;28;20045;-59
2023/05/08 07:55:45;;;;;;;12.80;11.60;;;15.30;99.90;;;;;;5046381;28;20037;-59
2023/05/08 07:58:10;;;;;;;13.15;11.85;;;15.40;99.90;;;;;;5047380;28;20044;-59
2023/05/08 08:00:36;;;;;;;13.02;11.63;;;15.50;99.90;;;;;;5048653;28;20033;-60
2023/05/08 08:03:03;;;;;;;13.30;12.00;;;15.60;99.90;;;;;;5046908;28;20060;-58
2023/05/08 08:05:28;;;;;;;14.20;11.43;;;15.60;99.90;;;;;;5049019;28;20068;-59
2023/05/08 08:07:54;;;;;;;13.25;11.80;;;15.70;99.90;;;;;;5044884;28;20464;-59
2023/05/08 08:10:19;;;;;;;11.93;10.77;;;15.90;99.90;;;;;;5045784;28;20037;-59
2023/05/08 08:12:45;;;;;;;12.93;11.73;;;16.00;99.90;;;;;;5048905;28;20044;-58
2023/05/08 08:15:11;;;;;;;12.15;10.93;;;16.00;99.90;;;;;;5051871;28;20499;-59
2023/05/08 08:17:36;;;;;;;12.93;11.63;;;16.20;99.90;;;;;;5047481;28;20040;-59
2023/05/08 08:20:02;;;;;;;14.00;12.50;;;16.20;99.90;;;;;;5049244;28;20068;-59
2023/05/08 08:22:28;;;;;;;14.32;12.30;;;16.30;99.90;;;;;;5064725;28;20040;-59
2023/05/08 08:24:54;;;;;;;11.93;10.80;;;16.40;99.90;;;;;;5050045;28;20124;-59
2023/05/08 08:27:20;;;;;;;12.82;11.52;;;16.40;99.90;;;;;;5052280;28;20041;-58
2023/05/08 08:29:46;;;;;;;13.35;11.15;;;16.40;99.90;;;;;;5047784;28;20044;-59
2023/05/08 08:32:12;;;;;;;13.48;12.07;;;16.50;99.90;;;;;;5038754;28;20450;-58
2023/05/08 08:34:37;;;;;;;13.02;11.63;;;16.50;99.90;;;;;;5052722;28;20029;-59
2023/05/08 08:37:06;;;;;;;13.07;11.77;;;16.50;99.90;;;;;;5046208;28;20609;-60
2023/05/08 08:39:35;;;;;;;13.70;12.30;;;16.50;99.90;;;;;;5048556;28;20124;-59
2023/05/08 08:42:00;;;;;;;12.63;11.32;;;16.50;99.90;;;;;;5047854;28;20064;-59
2023/05/08 08:44:26;;;;;;;13.32;12.05;;;16.50;99.90;;;;;;5051358;28;20504;-59
2023/05/08 08:46:53;;;;;;;13.20;12.00;;;16.50;99.90;;;;;;5052493;28;20043;-60
2023/05/08 08:49:30;;;;;;;12.48;11.27;;;16.60;99.90;;;;;;5049830;28;20041;-59
2023/05/08 08:52:05;;;;;;;13.73;12.18;;;16.70;99.90;;;;;;5063726;28;20049;-60
2023/05/08 08:54:34;;;;;;;13.88;12.48;;;16.80;99.90;;;;;;5050889;28;20040;-58
2023/05/08 08:57:03;;;;;;;13.98;12.57;;;16.80;99.90;;;;;;5051998;28;20037;-60
2023/05/08 08:59:31;;;;;;;13.75;12.38;;;17.00;99.90;;;;;;5044261;28;20091;-59
2023/05/08 09:02:04;;;;;;;14.43;12.88;;;17.00;99.90;;;;;;5048586;28;20057;-59
2023/05/08 09:04:30;;;;;;;14.30;12.57;;;17.20;99.90;;;;;;5048561;28;20132;-58
2023/05/08 09:06:57;;;;;;;14.38;12.70;;;17.30;99.90;;;;;;5050790;28;20044;-57
2023/05/08 09:09:23;;;;;;;14.18;12.70;;;17.40;99.90;;;;;;5050683;28;20056;-59
2023/05/08 09:11:51;;;;;;;13.65;12.35;;;17.50;99.90;;;;;;5050745;28;20036;-59
2023/05/08 09:14:17;;;;;;;14.15;12.65;;;17.60;99.90;;;;;;5047865;28;20139;-60
2023/05/08 09:16:43;;;;;;;14.40;13.07;;;17.70;99.90;;;;;;5051387;28;20180;-59
2023/05/08 09:19:13;;;;;;;15.13;13.63;;;17.90;99.90;;;;;;5042679;28;20060;-61
2023/05/08 09:21:39;;;;;;;14.82;12.63;;;18.30;99.90;;;;;;5062514;28;20456;-59
2023/05/08 09:24:05;;;;;;;14.20;12.75;;;18.60;99.90;;;;;;5047746;28;20076;-58
2023/05/08 09:26:39;;;;;;;14.88;13.30;;;19.00;99.90;;;;;;5050796;28;20083;-58
2023/05/08 09:29:15;;;;;;;13.95;12.52;;;19.30;99.90;;;;;;5050672;28;20067;-58
2023/05/08 09:31:48;;;;;;;14.68;13.18;;;19.50;99.90;;;;;;5050880;28;20036;-59
2023/05/08 09:34:31;;;;;;;13.50;12.10;;;19.70;99.90;;;;;;5051867;28;20091;-59
2023/05/08 09:37:03;;;;;;;13.63;12.18;;;19.90;99.90;;;;;;5050188;28;20052;-60
2023/05/08 09:39:28;;;;;;;13.43;12.13;;;20.10;99.90;;;;;;5050965;28;20052;-59
2023/05/08 09:41:59;;;;;;;14.02;12.68;;;20.20;99.90;;;;;;5051333;28;20041;-59
2023/05/08 09:44:25;;;;;;;13.43;12.05;;;20.30;99.90;;;;;;5052007;28;20033;-60
2023/05/08 09:46:50;;;;;;;14.05;12.65;;;20.50;99.90;;;;;;5046735;28;20404;-60
2023/05/08 09:49:17;;;;;;;13.70;12.35;;;20.40;99.90;;;;;;5049254;28;20408;-59
2023/05/08 09:51:53;;;;;;;13.88;12.52;;;20.30;99.90;;;;;;5050311;28;20107;-60
2023/05/08 09:54:19;;;;;;;14.07;12.57;;;20.50;99.90;;;;;;5051065;28;20029;-59
2023/05/08 09:56:44;;;;;;;14.57;13.18;;;20.70;99.90;;;;;;5050608;28;20040;-60
2023/05/08 09:59:26;;;;;;;14.18;12.88;;;20.80;99.90;;;;;;5049810;28;20049;-60
2023/05/08 10:01:53;;;;;;;14.80;13.30;;;20.90;99.90;;;;;;5050348;28;20060;-58
2023/05/08 10:04:35;;;;;;;14.10;12.70;;;21.20;99.90;;;;;;5046770;28;20514;-59
2023/05/08 10:07:02;;;;;;;14.27;12.88;;;21.20;99.90;;;;;;5066547;28;20053;-59
2023/05/08 10:09:28;;;;;;;14.15;12.73;;;21.20;99.90;;;;;;5049253;28;20534;-59
2023/05/08 10:11:54;;;;;;;14.13;12.73;;;21.20;99.90;;;;;;5050127;28;20049;-59
2023/05/08 10:14:22;;;;;;;14.02;12.73;;;21.20;99.90;;;;;;5049976;28;20395;-59
2023/05/08 10:16:50;;;;;;;14.50;13.10;;;21.40;99.90;;;;;;5050269;28;20093;-59
2023/05/08 10:19:19;;;;;;;13.82;12.40;;;21.70;99.90;;;;;;5051134;28;20692;-59
2023/05/08 10:21:53;;;;;;;15.65;14.05;;;22.10;99.90;;;;;;5049398;28;20462;-59
2023/05/08 10:24:24;;;;;;;14.52;13.13;;;22.20;99.90;;;;;;5045539;28;20066;-59
2023/05/08 10:27:03;;;;;;;14.10;12.60;;;22.30;99.90;;;;;;5047054;28;20142;-60
2023/05/08 10:29:52;;;;;;;15.25;13.65;;;22.50;99.90;;;;;;5048542;28;20094;-58
2023/05/08 10:32:22;;;;;;;14.43;13.02;;;22.60;99.90;;;;;;5050646;28;20037;-60
2023/05/08 10:34:52;;;;;;;14.50;13.18;;;22.80;99.90;;;;;;5046106;28;20477;-59
2023/05/08 10:37:18;;;;;;;15.65;14.15;;;23.10;99.90;;;;;;5038882;28;20370;-59
2023/05/08 10:39:45;;;;;;;14.07;12.57;;;23.00;99.90;;;;;;5046943;28;20480;-58
2023/05/08 10:42:14;;;;;;;15.13;13.60;;;23.00;99.90;;;;;;5050368;28;20037;-59
2023/05/08 10:44:40;;;;;;;15.15;13.13;;;23.10;99.90;;;;;;5050625;28;20461;-59
2023/05/08 10:47:33;;;;;;;14.90;13.57;;;23.20;99.90;;;;;;5043339;28;20072;-60
2023/05/08 10:50:38;;;;;;;13.70;12.40;;;23.10;99.90;;;;;;5048751;28;20044;-58
2023/05/08 10:53:21;;;;;;;14.80;13.25;;;23.20;99.90;;;;;;5008540;28;20041;-59
2023/05/08 10:55:50;;;;;;;15.00;13.45;;;23.30;99.90;;;;;;5027433;28;20182;-60
2023/05/08 10:58:30;;;;;;;18.10;13.75;;;23.30;99.90;;;;;;5009535;28;20507;-60
2023/05/08 11:00:56;;;;;;;14.73;13.38;;;23.20;99.90;;;;;;5010668;28;20056;-60
2023/05/08 11:03:29;;;;;;;15.73;14.13;;;23.20;99.90;;;;;;5026616;28;20536;-59
2023/05/08 11:05:56;;;;;;;16.02;14.52;;;23.00;99.90;;;;;;5024971;28;20052;-59
2023/05/08 11:08:26;;;;;;;15.07;13.57;;;22.90;99.90;;;;;;5024217;28;20520;-59
2023/05/08 11:11:00;;;;;;;16.30;14.68;;;22.80;99.90;;;;;;5027704;28;20504;-59
2023/05/08 11:13:54;;;;;;;18.55;14.27;;;22.70;99.90;;;;;;5025050;28;20507;-59
2023/05/08 11:16:55;;;;;;;14.38;12.88;;;22.40;99.90;;;;;;4949197;28;20046;-60
2023/05/08 11:19:23;;;;;;;12.68;11.52;;;22.50;99.90;;;;;;4918763;29;20047;-60
2023/05/08 11:22:15;;;;;;;13.63;12.23;;;22.40;99.90;;;;;;4947998;28;20223;-59
2023/05/08 11:25:03;;;;;;;14.02;12.73;;;22.50;99.90;;;;;;4949213;29;20047;-60
2023/05/08 11:27:34;;;;;;;13.43;11.85;;;22.70;99.90;;;;;;4949048;28;20047;-61
2023/05/08 11:30:33;;;;;;;13.50;12.20;;;22.90;99.90;;;;;;4985351;28;20042;-60
2023/05/08 11:33:05;;;;;;;15.32;13.80;;;23.10;99.90;;;;;;4967744;28;20047;-60
2023/05/08 11:35:45;;;;;;;15.18;12.65;;;23.40;99.90;;;;;;4985816;28;20418;-59
2023/05/08 11:38:18;;;;;;;12.82;11.63;;;23.50;99.90;;;;;;4983939;28;20125;-59
2023/05/08 11:40:58;;;;;;;15.45;13.88;;;23.40;99.90;;;;;;4971532;28;20051;-60
2023/05/08 11:43:27;;;;;;;14.63;13.15;;;23.30;99.90;;;;;;4983515;28;20039;-61
2023/05/08 11:45:53;;;;;;;12.77;11.48;;;23.50;99.90;;;;;;4986095;28;20441;-59
2023/05/08 11:48:19;;;;;;;14.35;12.95;;;23.40;99.90;;;;;;4991819;28;20054;-59
2023/05/08 11:50:46;;;;;;;13.68;12.32;;;23.20;99.80;;;;;;4991684;28;20096;-59
2023/05/08 11:53:12;;;;;;;13.52;11.80;;;23.30;99.90;;;;;;5020776;28;20083;-60
2023/05/08 11:55:38;;;;;;;13.00;11.43;;;23.70;99.90;;;;;;5068916;28;20536;-60
2023/05/08 11:58:17;;;;;;;14.48;12.38;;;23.80;99.90;;;;;;5053425;28;20072;-60
2023/05/08 12:00:46;;;;;;;14.55;13.00;;;23.90;99.90;;;;;;5054056;28;20084;-59
2023/05/08 12:03:13;;;;;;;14.20;12.82;;;23.70;99.50;;;;;;5053553;28;20056;-60
2023/05/08 12:05:39;;;;;;;14.13;12.70;;;23.60;99.80;;;;;;5051999;28;20044;-59
2023/05/08 12:08:09;;;;;;;14.23;12.52;;;23.60;99.90;;;;;;5053395;28;20549;-60
2023/05/08 12:10:52;;;;;;;15.00;13.40;;;23.50;99.50;;;;;;5052023;28;20056;-58
2023/05/08 12:13:20;;;;;;;13.98;12.52;;;23.40;99.50;;;;;;5053432;28;20047;-59
2023/05/08 12:15:47;;;;;;;13.77;12.43;;;23.30;99.90;;;;;;5051974;28;20052;-59
2023/05/08 12:18:13;;;;;;;13.35;11.85;;;23.60;99.90;;;;;;5055736;28;20559;-59
2023/05/08 12:20:39;;;;;;;12.20;11.00;;;23.60;99.60;;;;;;5053212;28;20115;-60
2023/05/08 12:23:04;;;;;;;12.60;11.40;;;23.90;99.60;;;;;;5053048;28;20500;-59
2023/05/08 12:25:30;;;;;;;17.85;12.02;;;23.90;99.20;;;;;;5035663;28;20060;-59
2023/05/08 12:27:57;;;;;;;14.25;12.80;;;24.10;99.30;;;;;;5053488;28;20128;-60
2023/05/08 12:30:22;;;;;;;13.52;11.65;;;24.30;99.00;;;;;;5053393;28;20435;-59
2023/05/08 12:32:49;;;;;;;14.85;12.48;;;24.30;99.10;;;;;;5053438;28;20086;-59
2023/05/08 12:35:15;;;;;;;14.05;12.70;;;24.20;98.40;;;;;;5048309;28;20181;-59
2023/05/08 12:37:41;;;;;;;14.70;13.30;;;24.20;98.80;;;;;;5051204;28;20500;-60
2023/05/08 12:40:21;;;;;;;15.77;14.25;;;24.40;99.30;;;;;;5050670;28;20036;-59